METAR Data
IDs: Format: Raw Decoded Include TAF

Data at: 0958 UTC 28 Jul 2021

KL52 280955Z AUTO 00000KT 8SM OVC008 16/14 A3001 RMK A01
KL52 280935Z AUTO 00000KT 9SM OVC008 16/14 A3002 RMK A01
KL52 280915Z AUTO 32003KT 8SM OVC008 15/14 A3002 RMK A01
KL52 280855Z AUTO 00000KT 8SM OVC007 15/15 A3003 RMK A01
KL52 280835Z AUTO 00000KT 8SM OVC008 16/15 A3002 RMK A01
KL52 280815Z AUTO 00000KT 9SM OVC009 16/15 A3002 RMK A01
KL52 280755Z AUTO 00000KT 10SM OVC010 16/14 A3002 RMK A01
KL52 280735Z AUTO 00000KT 6SM BR OVC010 16/15 A3003 RMK A01
KL52 280715Z AUTO 00000KT 10SM OVC010 16/15 A3003 RMK A01
KL52 280655Z AUTO 00000KT 10SM OVC010 16/15 A3003 RMK A01
KL52 280635Z AUTO 14003KT 10SM OVC010 16/15 A3003 RMK A01
KL52 280615Z AUTO 00000KT 10SM OVC009 16/15 A3003 RMK A01
KL52 280555Z AUTO 00000KT 10SM OVC008 16/15 A3004 RMK A01
KL52 280535Z AUTO 13003KT 10SM OVC007 16/15 A3004 RMK A01
KL52 280515Z AUTO 00000KT 10SM OVC007 16/15 A3004 RMK A01
KL52 280455Z AUTO 00000KT 10SM OVC007 16/15 A3003 RMK A01
KL52 280435Z AUTO 20003KT 10SM OVC007 16/15 A3003 RMK A01
KL52 280415Z AUTO 00000KT 10SM OVC008 16/15 A3002 RMK A01
KL52 280355Z AUTO 21004KT 10SM OVC009 16/15 A3001 RMK A01
KL52 280335Z AUTO VRB04KT 10SM OVC008 16/15 A3001 RMK A01
KL52 280315Z AUTO 26004KT 10SM OVC007 16/15 A3001 RMK A01
KL52 280255Z AUTO 27005KT 9SM OVC007 16/15 A3000 RMK A01
KL52 280235Z AUTO VRB04KT 9SM OVC006 16/15 A3000 RMK A01
KL52 280215Z AUTO 29004KT 9SM OVC006 16/15 A3000 RMK A01
KL52 280155Z AUTO VRB05KT 9SM OVC006 16/15 A3000 RMK A01
KL52 280135Z AUTO 27005KT 9SM OVC006 16/15 A3000 RMK A01
KL52 280055Z AUTO VRB04KT 9SM OVC006 17/15 A3001 RMK A01
KL52 280035Z AUTO 27006KT 9SM OVC006 17/15 A3001 RMK A01
KL52 280015Z AUTO 29005KT 9SM OVC007 17/15 A3002 RMK A01
KL52 272355Z AUTO 27007KT 8SM OVC007 17/15 A3002 RMK A01
KL52 272335Z AUTO 26006KT 8SM OVC007 17/15 A3002 RMK A01
KL52 272315Z AUTO 27007KT 8SM OVC008 18/15 A3002 RMK A01
KL52 272255Z AUTO VRB05G10KT 9SM OVC008 18/15 A3002 RMK A01
KL52 272235Z AUTO 27008KT 8SM OVC008 18/15 A3003 RMK A01
KL52 272215Z AUTO VRB06KT 9SM OVC008 18/15 A3003 RMK A01
KL52 272155Z AUTO 26008KT 7SM OVC007 18/15 A3003 RMK A01
KL52 272135Z AUTO 28006KT 7SM OVC007 18/15 A3003 RMK A01
KL52 272115Z AUTO VRB04G10KT 7SM OVC006 18/15 A3003 RMK A01
KL52 272055Z AUTO VRB05G10KT 8SM OVC006 18/15 A3003 RMK A01
KL52 272035Z AUTO 28006KT 8SM OVC006 18/15 A3003 RMK A01
KL52 272015Z AUTO 27007KT 9SM BKN006 18/15 A3003 RMK A01
KL52 271955Z AUTO VRB06G11KT 8SM CLR 18/15 A3002 RMK A01
KL52 271935Z AUTO VRB05G12KT 8SM CLR 18/15 A3002 RMK A01
KL52 271915Z AUTO 26006KT 8SM CLR 18/15 A3002 RMK A01
KL52 271855Z AUTO VRB05KT 9SM CLR 18/15 A3002 RMK A01
KL52 271835Z AUTO VRB04KT 7SM CLR 17/15 A3002 RMK A01
KL52 271815Z AUTO VRB04KT 7SM CLR 17/15 A3002 RMK A01
KL52 271755Z AUTO 26005KT 7SM FEW005 17/15 A3002 RMK A01
KL52 271735Z AUTO 30004KT 7SM CLR 17/15 A3002 RMK A01
KL52 271715Z AUTO 27003KT 7SM CLR 17/15 A3002 RMK A01
KL52 271655Z AUTO 00000KT 9SM CLR 16/15 A3002 RMK A01
KL52 271635Z AUTO 00000KT 7SM FEW006 16/15 A3002 RMK A01
KL52 271615Z AUTO 00000KT 6SM BR SCT006 16/15 A3003 RMK A01
KL52 271555Z AUTO 7SM BKN006 16/15 A3003 RMK A01
KL52 271535Z AUTO 5SM BR BKN006 16/15 A3003 RMK A01
KL52 271515Z AUTO 00000KT 7SM OVC006 16/15 A3002 RMK A01
KL52 271455Z AUTO 27003KT 6SM HZ OVC006 A3001 RMK A01
KL52 271435Z AUTO 00000KT 6SM BR OVC006 16/15 A3001 RMK A01
KL52 271415Z AUTO 00000KT 6SM BR OVC005 16/15 A3001 RMK A01
KL52 271355Z AUTO 00000KT 4SM BR OVC005 16/15 A3001 RMK A01
KL52 271335Z AUTO 00000KT 6SM BR OVC005 15/15 A3000 RMK A01
KL52 271315Z AUTO 00000KT 6SM BR OVC005 15/15 A2999 RMK A01
KL52 271255Z AUTO 00000KT 6SM BR OVC005 15/15 A2999 RMK A01
KL52 271235Z AUTO 00000KT 7SM OVC004 15/15 A2999 RMK A01
KL52 271215Z AUTO 00000KT 6SM BR OVC004 15/15 A2999 RMK A01
KL52 271155Z AUTO 00000KT 6SM BR OVC004 15/15 A2999 RMK A01
KL52 271135Z AUTO 00000KT 7SM OVC004 15/15 A2998 RMK A01
KL52 271115Z AUTO 00000KT 7SM OVC004 15/15 A2998 RMK A01
KL52 271055Z AUTO 00000KT 7SM OVC004 15/15 A2998 RMK A01
KL52 271035Z AUTO 00000KT 8SM OVC004 16/15 A2998 RMK A01
KL52 271015Z AUTO 00000KT 8SM OVC005 16/15 A2998 RMK A01
KL52 270955Z AUTO 00000KT 8SM OVC005 16/15 A2998 RMK A01
KL52 270935Z AUTO 00000KT 5SM BR OVC006 15/15 A2998 RMK A01
KL52 270915Z AUTO 00000KT 5SM BR OVC006 15/15 A2998 RMK A01
KL52 270855Z AUTO 00000KT 6SM BR OVC006 15/15 A2998 RMK A01
KL52 270835Z AUTO 00000KT 7SM OVC006 15/15 A2998 RMK A01
KL52 270815Z AUTO 00000KT 6SM BR SCT007 14/14 A2998 RMK A01
KL52 270755Z AUTO 00000KT 7SM SCT006 14/14 A2998 RMK A01
KL52 270735Z AUTO 00000KT 7SM FEW006 14/14 A2998 RMK A01
KL52 270715Z AUTO 00000KT 8SM CLR 15/14 A2997 RMK A01
KL52 270655Z AUTO 00000KT 9SM CLR 15/14 A2997 RMK A01
KL52 270635Z AUTO 00000KT 9SM CLR 15/14 A2997 RMK A01
KL52 270615Z AUTO 00000KT 10SM CLR 15/15 A2996 RMK A01
KL52 270555Z AUTO 00000KT 10SM CLR 15/15 A2996 RMK A01
KL52 270535Z AUTO 00000KT 10SM CLR 15/15 A2996 RMK A01
KL52 270515Z AUTO 00000KT 10SM CLR 15/15 A2996 RMK A01
KL52 270455Z AUTO 00000KT 9SM CLR 15/14 A2995 RMK A01
KL52 270435Z AUTO 00000KT 9SM CLR 15/15 A2995 RMK A01
KL52 270415Z AUTO 00000KT 9SM CLR 16/15 A2994 RMK A01
KL52 270355Z AUTO 00000KT 10SM CLR 16/15 A2994 RMK A01
KL52 270335Z AUTO 00000KT 10SM CLR 16/15 A2993 RMK A01
KL52 270315Z AUTO 24004KT 9SM CLR 16/15 A2993 RMK A01
KL52 270255Z AUTO 22004KT 8SM CLR 16/15 A2993 RMK A01
KL52 270235Z AUTO 00000KT 8SM CLR 16/15 A2993 RMK A01
KL52 270215Z AUTO 00000KT 9SM CLR 16/15 A2993 RMK A01
KL52 270155Z AUTO 00000KT 9SM CLR 16/15 A2993 RMK A01
KL52 270135Z AUTO 00000KT 9SM CLR 16/15 A2993 RMK A01
KL52 270115Z AUTO VRB04KT 9SM CLR 16/15 A2994 RMK A01
KL52 270055Z AUTO VRB04KT 10SM CLR 16/15 A2994 RMK A01
KL52 270035Z AUTO 29004KT 9SM CLR 16/15 A2994 RMK A01
KL52 270015Z AUTO 27004KT 7SM CLR 16/15 A2995 RMK A01
KL52 262355Z AUTO 30004KT 9SM CLR 16/15 A2995 RMK A01
KL52 262335Z AUTO 29004KT 9SM FEW005 16/15 A2996 RMK A01
KL52 262315Z AUTO 29004KT 7SM FEW005 16/15 A2996 RMK A01
KL52 262255Z AUTO VRB03KT 7SM CLR 16/15 A2997 RMK A01
KL52 262235Z AUTO 29004KT 8SM CLR 16/15 A2997 RMK A01
KL52 262215Z AUTO 30005KT 9SM CLR 16/15 A2997 RMK A01